Aérodrome :
LOGIN :

S'inscrire | Disclaimer

   EN    FR    IT 

 










Légende :    VFR   VFR Marginal   IFR   IFR Intensif   IFR Très Intensif
Visi : 
Plafond : 
>= 8 km
>= 3000ft
5 à 8 km
1000 à 3000 ft
1500m à 5 km
500 à 1000 ft
800 à 1500m
200 à 500 ft
< 800m
< 200 ft
Symboles :   Orages  Brouillard  Fortes neiges  Fortes précipitations  Vent > 20 kt
SIGMETs :   Divers  Orages  Givrage  Turbulence  Onde Orograph.  Cendres Volcan.







- Altitude de l'aérodrome : 74 ft
- Code IATA : EIN


EHEH - Eindhoven

DERNIER METAR :
  • 181825Z AUTO 36008KT 300V050 9999 OVC062 13/07 Q1028 BLU 35008KT CAVOK

METARs EXPIRÉS :
  • 181755Z AUTO 36007KT 280V040 9999 BKN061 BKN360 14/07 Q1027 BLU 35008KT CAVOK
  • 181725Z AUTO 36008KT 320V040 9999 OVC062 15/07 Q1027 BLU 35008KT 9999 SCT048 SCT060
  • 181655Z AUTO 36008KT 320V030 9999 OVC060 15/07 Q1027 BLU 35008KT 9999 SCT048 SCT060
  • 181625Z AUTO 36011KT 300V030 9999 FEW043/// SCT052/// OVC059/// 17/06 Q1027 BLU 35008KT 9999 SCT048 SCT060
  • 181555Z AUTO 35008KT 300V020 9999 BKN060 17/07 Q1027 BLU 35008KT 9999 SCT048 SCT060

TAF TAF EHEH
Valide du 18 à 18h jusqu'au 20 à 00h UTC


181705Z 1818/1924 36008KT CAVOK
BECMG 1901/1903 VRB01KT
PROB30 1903/1907 4500 BR MIFG
BECMG 1912/1915 04005KT
Pas de NOTAMs connus pour ce terrain.



MET'MAP, la Météo Aéronautique d'un coup d'oeil ! - Copyright ORBIFLY Décembre 2007 - Disclaimer

ORBIFLY MET'MAP TEAM :

Programmation & Développement : Alexandra Zaïnal
Conception & Développement : Baudouin d'Aumeries
Co-Programmation & Développement : Marc-Olivier Méhu
Soutien technique & logistique : Manuel Goepfert

Contact : metmap@orbifly.com




SOURCES & CREDITS :

   NOAA